Time;durP1;ratioP1;P1;durP2;ratioP2;P2;SDS_P1;SDS_P2;PMS_P1;PMS_P2;Temp;Humidity;BMP_temperature;BMP_pressure;BME280_temperature;BME280_humidity;BME280_pressure;Samples;Min_cycle;Max_cycle;Signal;HPM_P1;HPM_P2
2021/09/30 00:00:16;;;;;;;;;;;;;;;9.26;74.21;97945.78;30001;983;1862;-57
2021/09/30 00:00:48;;;;;;;;;;;;;;;9.25;74.29;97941.44;30001;983;1875;-58
2021/09/30 00:01:19;;;;;;;;;;;;;;;9.28;74.02;97938.22;30001;983;1884;-58
2021/09/30 00:01:49;;;;;;;;;;;;;;;9.25;73.90;97946.88;30001;983;1880;-58
2021/09/30 00:02:20;;;;;;;;;;;;;;;9.22;74.12;97943.84;30001;983;1884;-57
2021/09/30 00:02:51;;;;;;;;;;;;;;;9.23;74.10;97946.31;30001;983;1858;-58
2021/09/30 00:03:22;;;;;;;;;;;;;;;9.22;73.70;97941.16;30001;983;1880;-57
2021/09/30 00:03:53;;;;;;;;;;;;;;;9.21;74.00;97943.03;30001;983;1880;-59
2021/09/30 00:04:24;;;;;;;;;;;;;;;9.22;74.35;97941.16;30001;983;1885;-59
2021/09/30 00:04:55;;;;;;;;;;;;;;;9.20;74.24;97946.00;30001;982;1880;-56
2021/09/30 00:05:25;;;;;;;;;;;;;;;9.17;74.61;97946.53;30001;982;1884;-58
2021/09/30 00:05:56;;;;;;;;;;;;;;;9.16;74.45;97947.59;30001;982;1880;-58
2021/09/30 00:06:28;;;;;;;;;;;;;;;9.18;74.52;97943.56;30001;982;1885;-59
2021/09/30 00:07:00;;;;;;;;;;;;;;;9.18;74.61;97950.87;30001;982;1859;-57
2021/09/30 00:07:30;;;;;;;;;;;;;;;9.22;74.23;97944.69;30001;983;1880;-58
2021/09/30 00:08:02;;;;;;;;;;;;;;;9.26;73.60;97944.97;30001;983;1880;-57
2021/09/30 00:08:33;;;;;;;;;;;;;;;9.29;73.82;97939.88;30001;983;1884;-57
2021/09/30 00:09:03;;;;;;;;;;;;;;;9.26;73.70;97939.56;30001;983;1880;-58
2021/09/30 00:09:36;;;;;;;;;;;;;;;9.24;74.02;97945.22;30001;983;1884;-58
2021/09/30 00:10:08;;;;;;;;;;;;;;;9.25;74.10;97938.75;30001;983;1880;-57
2021/09/30 00:10:44;;;;;;;;;;;;;;;9.25;73.53;97943.34;30001;983;1863;-58
2021/09/30 00:11:22;;;;;;;;;;;;;;;9.18;74.12;97946.25;30001;983;1876;-58
2021/09/30 00:12:00;;;;;;;;;;;;;;;9.17;74.50;97952.75;30001;983;1885;-58
2021/09/30 00:12:35;;;;;;;;;;;;;;;9.23;74.00;97940.06;30001;982;1880;-57
2021/09/30 00:13:17;;;;;;;;;;;;;;;9.22;73.71;97941.16;30001;982;1885;-58
2021/09/30 00:14:06;;;;;;;;;;;;;;;9.16;73.98;97951.13;30001;982;1858;-57
2021/09/30 00:14:50;;;;;;;;;;;;;;;9.18;74.12;97954.38;30001;982;1859;-57
2021/09/30 00:16:36;;;;;;;;;;;;;;;9.11;74.59;97951.06;30001;983;1862;-58
2021/09/30 00:17:45;;;;;;;;;;;;;;;9.09;74.89;97950.50;30001;983;1875;-58
2021/09/30 00:34:42;;;;;;;;;;;;;;;8.91;75.57;97956.31;30002;982;1880;-58
2021/09/30 00:35:27;;;;;;;;;;;;;;;8.88;75.64;97956.81;30002;982;1863;-58
2021/09/30 00:36:13;;;;;;;;;;;;;;;8.99;75.28;97955.84;30002;982;1876;-57
2021/09/30 00:40:24;;;;;;;;;;;;;;;8.94;75.39;97953.91;30002;983;1884;-57
2021/09/30 00:46:22;;;;;;;;;;;;;;;8.82;76.51;97953.25;30002;974;1898;-57
2021/09/30 00:47:53;;;;;;;;;;;;;;;8.77;76.59;97955.06;30002;983;1858;-58
2021/09/30 00:49:38;;;;;;;;;;;;;;;8.74;76.50;97964.50;30002;982;1880;-58
2021/09/30 00:50:28;;;;;;;;;;;;;;;8.77;76.77;97955.06;30002;982;1885;-60
2021/09/30 00:52:14;;;;;;;;;;;;;;;8.78;76.65;97959.41;30002;983;1884;-57
2021/09/30 01:18:48;;;;;;;;;;;;;;;8.95;74.38;97976.38;30001;983;1880;-57
2021/09/30 01:20:07;;;;;;;;;;;;;;;8.85;75.09;97984.38;30001;982;1863;-58
2021/09/30 01:30:01;;;;;;;;;;;;;;;8.72;75.86;97988.31;30001;982;1880;-57
2021/09/30 01:34:22;;;;;;;;;;;;;;;8.72;75.63;97993.72;30001;982;1880;-57
2021/09/30 01:46:58;;;;;;;;;;;;;;;8.64;76.26;97986.88;30001;983;1876;-57
2021/09/30 02:18:20;;;;;;;;;;;;;;;8.62;75.65;97999.84;30001;982;1858;-57
2021/09/30 02:19:04;;;;;;;;;;;;;;;8.45;76.72;97985.56;30001;983;1880;-58
2021/09/30 02:22:52;;;;;;;;;;;;;;;8.33;77.59;98001.91;30001;983;1875;-59
2021/09/30 02:24:30;;;;;;;;;;;;;;;8.38;77.14;97987.63;30001;983;1880;-57
2021/09/30 02:26:10;;;;;;;;;;;;;;;8.38;77.41;97987.63;30001;982;1880;-58
2021/09/30 02:29:08;;;;;;;;;;;;;;;8.33;77.03;98001.09;30001;982;1876;-58
2021/09/30 02:39:49;;;;;;;;;;;;;;;8.32;76.78;98000.28;30001;987;1867;-57
2021/09/30 02:58:32;;;;;;;;;;;;;;;8.38;75.87;97998.47;30001;983;1871;-57
2021/09/30 02:59:09;;;;;;;;;;;;;;;8.38;76.09;98003.87;30001;983;1880;-57
2021/09/30 02:59:40;;;;;;;;;;;;;;;8.46;74.97;97998.03;30001;983;1875;-58
2021/09/30 03:00:12;;;;;;;;;;;;;;;8.46;75.28;98002.63;30001;983;1880;-57
2021/09/30 03:00:43;;;;;;;;;;;;;;;8.43;75.15;98000.41;30001;983;1875;-57
2021/09/30 03:01:18;;;;;;;;;;;;;;;8.41;75.71;98000.66;30001;983;1880;-59
2021/09/30 03:01:50;;;;;;;;;;;;;;;8.38;75.66;98007.38;30001;983;1876;-58
2021/09/30 03:02:22;;;;;;;;;;;;;;;8.41;75.71;98008.78;30001;983;1880;-58
2021/09/30 03:02:53;;;;;;;;;;;;;;;8.40;75.64;98001.72;30001;983;1854;-57
2021/09/30 03:03:25;;;;;;;;;;;;;;;8.39;76.06;98000.09;30001;982;1876;-59
2021/09/30 03:03:56;;;;;;;;;;;;;;;8.38;75.92;98001.97;30001;982;1875;-59
2021/09/30 03:04:31;;;;;;;;;;;;;;;8.35;76.41;97999.78;30001;982;1880;-58
2021/09/30 03:05:02;;;;;;;;;;;;;;;8.33;76.18;98009.22;30001;982;1876;-56
2021/09/30 03:05:33;;;;;;;;;;;;;;;8.30;76.06;98004.28;30001;982;1858;-58
2021/09/30 03:06:05;;;;;;;;;;;;;;;8.27;76.21;98002.91;30001;983;1871;-57
2021/09/30 03:06:36;;;;;;;;;;;;;;;8.26;76.48;98008.56;30001;983;1880;-58
2021/09/30 03:07:08;;;;;;;;;;;;;;;8.24;76.51;98002.59;30001;983;1875;-58
2021/09/30 03:07:39;;;;;;;;;;;;;;;8.25;76.95;98012.34;30001;983;1880;-56
2021/09/30 03:08:11;;;;;;;;;;;;;;;8.28;76.47;98003.72;30001;983;1853;-59
2021/09/30 03:08:45;;;;;;;;;;;;;;;8.28;76.71;98006.44;30001;983;1875;-58
2021/09/30 03:09:20;;;;;;;;;;;;;;;8.27;76.59;98002.09;30001;983;1876;-57
2021/09/30 03:09:52;;;;;;;;;;;;;;;8.27;76.76;98008.31;30001;983;1858;-58
2021/09/30 03:10:24;;;;;;;;;;;;;;;8.26;76.53;97997.75;30001;983;1871;-57
2021/09/30 03:10:57;;;;;;;;;;;;;;;8.25;76.83;98012.34;30001;982;1880;-57
2021/09/30 03:11:29;;;;;;;;;;;;;;;8.25;76.66;98015.03;30001;982;1876;-60
2021/09/30 03:12:02;;;;;;;;;;;;;;;8.22;76.23;98004.72;30001;982;1880;-58
2021/09/30 03:12:34;;;;;;;;;;;;;;;8.20;76.51;98006.84;30001;982;1876;-58
2021/09/30 03:13:05;;;;;;;;;;;;;;;8.17;77.05;98001.94;30001;982;1880;-58
2021/09/30 03:13:38;;;;;;;;;;;;;;;8.16;77.05;98005.72;30001;983;1875;-58
2021/09/30 03:14:10;;;;;;;;;;;;;;;8.14;77.08;98002.44;30001;983;1880;-56
2021/09/30 03:14:46;;;;;;;;;;;;;;;8.12;77.31;98015.41;30001;983;1875;-58
2021/09/30 03:15:37;;;;;;;;;;;;;;;8.10;77.62;98007.53;30001;983;1858;-57
2021/09/30 03:16:18;;;;;;;;;;;;;;;8.08;77.54;98005.06;30001;983;1871;-60
2021/09/30 03:16:50;;;;;;;;;;;;;;;8.08;77.79;98007.78;30001;983;1880;-58
2021/09/30 03:17:21;;;;;;;;;;;;;;;8.10;77.63;98012.13;30001;983;1875;-58
2021/09/30 03:18:12;;;;;;;;;;;;;;;8.10;77.80;98009.41;30001;983;1880;-56
2021/09/30 03:18:56;;;;;;;;;;;;;;;8.16;76.70;98011.94;30001;982;1854;-57
2021/09/30 03:19:38;;;;;;;;;;;;;;;8.13;76.87;98009.75;30001;982;1876;-57
2021/09/30 03:20:29;;;;;;;;;;;;;;;8.10;76.89;98012.13;30001;982;1876;-57
2021/09/30 03:22:50;;;;;;;;;;;;;;;8.04;77.41;98009.34;30001;983;1875;-57
2021/09/30 03:23:24;;;;;;;;;;;;;;;8.04;77.65;98009.34;30001;983;1875;-57
2021/09/30 03:23:55;;;;;;;;;;;;;;;8.04;77.81;98009.34;30001;983;1880;-56
2021/09/30 03:24:26;;;;;;;;;;;;;;;8.05;77.55;98010.97;30001;983;1876;-57
2021/09/30 03:24:58;;;;;;;;;;;;;;;8.06;77.67;98012.63;30001;983;1880;-60
2021/09/30 03:25:29;;;;;;;;;;;;;;;8.02;77.84;98008.78;30001;983;1854;-58
2021/09/30 03:26:01;;;;;;;;;;;;;;;8.01;77.86;98014.44;30001;982;1876;-57
2021/09/30 03:26:33;;;;;;;;;;;;;;;8.02;78.05;98014.19;30001;982;1876;-58
2021/09/30 03:27:04;;;;;;;;;;;;;;;8.02;77.99;98010.66;30001;982;1881;-58
2021/09/30 03:27:35;;;;;;;;;;;;;;;8.01;77.58;98015.25;30001;982;1876;-56
2021/09/30 03:28:07;;;;;;;;;;;;;;;7.99;77.79;98011.97;30001;982;1881;-56
2021/09/30 03:28:38;;;;;;;;;;;;;;;7.99;78.07;98014.66;30001;983;1875;-57
2021/09/30 03:29:09;;;;;;;;;;;;;;;7.99;78.12;98014.66;30001;983;1858;-57
2021/09/30 03:29:40;;;;;;;;;;;;;;;7.98;77.89;98014.91;30001;983;1871;-58
2021/09/30 03:30:12;;;;;;;;;;;;;;;7.99;77.95;98020.09;30001;983;1880;-58
2021/09/30 03:30:43;;;;;;;;;;;;;;;7.98;78.27;98014.91;30001;983;1875;-57
2021/09/30 03:31:14;;;;;;;;;;;;;;;7.97;78.31;98014.09;30001;983;1880;-57
2021/09/30 03:31:47;;;;;;;;;;;;;;;7.98;78.41;98013.03;30001;983;1876;-58
2021/09/30 03:32:18;;;;;;;;;;;;;;;7.95;78.33;98016.25;30001;983;1880;-57
2021/09/30 03:32:50;;;;;;;;;;;;;;;7.94;78.60;98013.81;30001;982;1854;-57
2021/09/30 03:33:22;;;;;;;;;;;;;;;7.94;78.71;98019.22;30001;982;1876;-57
2021/09/30 03:33:53;;;;;;;;;;;;;;;7.93;78.43;98018.41;30001;982;1876;-57
2021/09/30 03:34:24;;;;;;;;;;;;;;;7.93;78.77;98020.28;30001;982;1880;-58
2021/09/30 03:34:56;;;;;;;;;;;;;;;7.92;78.43;98019.47;30001;982;1876;-57
2021/09/30 03:35:27;;;;;;;;;;;;;;;7.91;79.23;98014.31;30001;982;1881;-58
2021/09/30 03:35:58;;;;;;;;;;;;;;;7.87;78.87;98013.97;30001;982;1876;-58
2021/09/30 03:36:29;;;;;;;;;;;;;;;7.87;79.13;98015.88;30001;983;1880;-57
2021/09/30 03:37:04;;;;;;;;;;;;;;;7.87;78.81;98013.97;30001;983;1875;-58
2021/09/30 03:37:35;;;;;;;;;;;;;;;7.89;79.23;98017.25;30001;983;1880;-59
2021/09/30 03:38:06;;;;;;;;;;;;;;;7.90;78.82;98012.66;30001;983;1854;-57
2021/09/30 03:38:38;;;;;;;;;;;;;;;7.91;78.96;98014.31;30001;983;1876;-57
2021/09/30 03:39:13;;;;;;;;;;;;;;;7.90;78.63;98015.38;30001;983;1876;-59
2021/09/30 03:39:44;;;;;;;;;;;;;;;7.89;78.96;98017.25;30001;983;1880;-57
2021/09/30 03:40:15;;;;;;;;;;;;;;;7.88;79.13;98014.78;30001;982;1876;-57
2021/09/30 03:40:46;;;;;;;;;;;;;;;7.88;78.84;98010.22;30001;982;1880;-57
2021/09/30 03:41:17;;;;;;;;;;;;;;;7.88;78.74;98015.62;30001;982;1876;-57
2021/09/30 03:41:48;;;;;;;;;;;;;;;7.88;78.57;98015.62;30001;982;1880;-59
2021/09/30 03:42:19;;;;;;;;;;;;;;;7.93;78.86;98013.00;30001;982;1854;-58
2021/09/30 03:42:49;;;;;;;;;;;;;;;7.92;78.35;98016.75;30001;982;1876;-56
2021/09/30 03:43:20;;;;;;;;;;;;;;;7.99;78.09;98011.97;30001;982;1876;-56
2021/09/30 03:43:54;;;;;;;;;;;;;;;8.01;78.12;98019.84;30001;983;1880;-58
2021/09/30 03:44:25;;;;;;;;;;;;;;;7.97;77.64;98007.91;30001;983;1875;-58
2021/09/30 03:44:56;;;;;;;;;;;;;;;7.96;78.07;98012.50;30001;983;1880;-58
2021/09/30 03:45:26;;;;;;;;;;;;;;;7.97;77.98;98018.72;30001;983;1876;-56
2021/09/30 03:45:57;;;;;;;;;;;;;;;8.05;77.60;98010.97;30001;983;1880;-57
2021/09/30 03:46:28;;;;;;;;;;;;;;;8.12;77.38;98015.41;30001;983;1876;-58
2021/09/30 03:46:59;;;;;;;;;;;;;;;8.14;76.91;98010.56;30001;983;1880;-60
2021/09/30 03:47:30;;;;;;;;;;;;;;;8.13;77.28;98017.03;30001;983;1854;-57
2021/09/30 03:48:04;;;;;;;;;;;;;;;8.10;77.15;98012.13;30001;982;1876;-57
2021/09/30 03:48:35;;;;;;;;;;;;;;;8.10;77.20;98022.94;30001;982;1876;-56
2021/09/30 03:49:12;;;;;;;;;;;;;;;8.08;77.37;98013.19;30001;982;1881;-58
2021/09/30 03:49:45;;;;;;;;;;;;;;;8.07;77.21;98018.84;30001;982;1876;-59
2021/09/30 03:50:18;;;;;;;;;;;;;;;8.04;77.37;98014.75;30001;982;1880;-57
2021/09/30 03:51:02;;;;;;;;;;;;;;;8.04;77.28;98014.75;30001;983;1875;-60
2021/09/30 03:51:49;;;;;;;;;;;;;;;8.04;77.75;98019.34;30001;983;1880;-57
2021/09/30 03:52:32;;;;;;;;;;;;;;;8.03;77.76;98018.53;30001;983;1854;-58
2021/09/30 03:53:14;;;;;;;;;;;;;;;8.02;77.62;98014.19;30001;983;1875;-56
2021/09/30 03:54:00;;;;;;;;;;;;;;;8.06;77.42;98017.22;30001;983;1876;-56
2021/09/30 03:57:35;;;;;;;;;;;;;;;8.06;77.07;98018.03;30001;982;1876;-58
2021/09/30 03:59:44;;;;;;;;;;;;;;;7.86;79.35;98028.56;30001;983;1800;-57
2021/09/30 04:00:16;;;;;;;;;;;;;;;7.82;78.99;98022.00;30001;983;1875;-58
2021/09/30 04:00:47;;;;;;;;;;;;;;;7.80;79.18;98018.72;30001;983;1880;-57
2021/09/30 04:01:17;;;;;;;;;;;;;;;7.77;79.12;98016.53;30001;983;1876;-57
2021/09/30 04:01:55;;;;;;;;;;;;;;;7.77;78.98;98019.22;30001;983;1880;-57
2021/09/30 04:02:28;;;;;;;;;;;;;;;7.76;79.03;98016.75;30001;983;1876;-58
2021/09/30 04:02:59;;;;;;;;;;;;;;;7.77;79.37;98019.22;30001;982;1880;-58
2021/09/30 04:03:29;;;;;;;;;;;;;;;7.76;78.83;98020.28;30001;982;1876;-57
2021/09/30 04:04:00;;;;;;;;;;;;;;;7.75;78.82;98024.06;30001;982;1859;-57
2021/09/30 04:04:32;;;;;;;;;;;;;;;7.71;78.95;98025.59;30001;982;1872;-57
2021/09/30 04:05:04;;;;;;;;;;;;;;;7.67;78.73;98019.87;30001;982;1881;-57
2021/09/30 04:05:34;;;;;;;;;;;;;;;7.66;79.01;98022.81;30001;983;1875;-61
2021/09/30 04:06:05;;;;;;;;;;;;;;;7.64;79.14;98027.66;30001;983;1880;-57
2021/09/30 04:06:36;;;;;;;;;;;;;;;7.62;79.10;98021.69;30001;983;1876;-57
2021/09/30 04:07:08;;;;;;;;;;;;;;;7.64;79.51;98019.53;30001;983;1858;-58
2021/09/30 04:07:40;;;;;;;;;;;;;;;7.64;79.12;98016.84;30001;983;1871;-57
2021/09/30 04:08:11;;;;;;;;;;;;;;;7.64;79.18;98020.37;30001;983;1880;-57
2021/09/30 04:08:41;;;;;;;;;;;;;;;7.63;79.47;98017.91;30001;983;1876;-61
2021/09/30 04:09:12;;;;;;;;;;;;;;;7.62;79.54;98022.50;30001;983;1880;-57
2021/09/30 04:09:43;;;;;;;;;;;;;;;7.61;79.36;98022.78;30001;983;1876;-58
2021/09/30 04:10:14;;;;;;;;;;;;;;;7.59;79.47;98022.19;30001;983;1880;-57
2021/09/30 04:10:45;;;;;;;;;;;;;;;7.55;79.63;98021.03;30001;982;1876;-57
2021/09/30 04:11:15;;;;;;;;;;;;;;;7.52;79.70;98032.34;30001;982;1880;-57
2021/09/30 04:11:46;;;;;;;;;;;;;;;7.50;79.96;98024.47;30001;982;1854;-58
2021/09/30 04:12:17;;;;;;;;;;;;;;;7.47;80.08;98024.16;30001;982;1876;-57
2021/09/30 04:12:48;;;;;;;;;;;;;;;7.45;79.91;98031.69;30001;982;1876;-57
2021/09/30 04:13:20;;;;;;;;;;;;;;;7.44;80.16;98025.44;30001;983;1879;-58
2021/09/30 04:13:51;;;;;;;;;;;;;;;7.43;79.95;98031.91;30001;983;1875;-58
2021/09/30 04:14:22;;;;;;;;;;;;;;;7.43;80.06;98031.09;30001;983;1857;-58
2021/09/30 04:14:54;;;;;;;;;;;;;;;7.42;80.24;98024.06;30001;983;1871;-57
2021/09/30 04:15:25;;;;;;;;;;;;;;;7.42;80.23;98032.97;30001;983;1880;-58
2021/09/30 04:15:56;;;;;;;;;;;;;;;7.41;80.24;98036.75;30001;983;1876;-57
2021/09/30 04:16:27;;;;;;;;;;;;;;;7.42;80.06;98037.56;30001;983;1880;-58
2021/09/30 04:16:59;;;;;;;;;;;;;;;7.40;80.32;98035.94;30001;983;1876;-57
2021/09/30 04:17:30;;;;;;;;;;;;;;;7.41;80.34;98042.16;30001;983;1880;-58
2021/09/30 04:18:00;;;;;;;;;;;;;;;7.40;80.11;98035.94;30001;982;1876;-58
2021/09/30 04:18:31;;;;;;;;;;;;;;;7.37;80.27;98036.41;30001;982;1880;-61
2021/09/30 04:19:02;;;;;;;;;;;;;;;7.35;80.28;98037.72;30001;982;1854;-57
2021/09/30 04:19:33;;;;;;;;;;;;;;;7.33;80.37;98032.56;30001;982;1876;-57
2021/09/30 04:20:05;;;;;;;;;;;;;;;7.31;80.30;98037.38;30001;982;1876;-57
2021/09/30 04:20:35;;;;;;;;;;;;;;;7.30;80.27;98043.03;30001;983;1880;-61
2021/09/30 04:21:06;;;;;;;;;;;;;;;7.28;80.53;98037.88;30001;983;1875;-58
2021/09/30 04:21:37;;;;;;;;;;;;;;;7.28;80.17;98043.25;30001;983;1858;-60
2021/09/30 04:22:08;;;;;;;;;;;;;;;7.26;80.34;98041.91;30001;983;1871;-57
2021/09/30 04:22:40;;;;;;;;;;;;;;;7.22;80.38;98044.25;30001;983;1880;-57
2021/09/30 04:23:11;;;;;;;;;;;;;;;7.17;80.61;98043.34;30001;983;1876;-58
2021/09/30 04:23:42;;;;;;;;;;;;;;;7.13;80.80;98037.63;30001;983;1858;-57
2021/09/30 04:24:13;;;;;;;;;;;;;;;7.11;80.70;98039.72;30001;983;1849;-59
2021/09/30 04:24:47;;;;;;;;;;;;;;;7.10;80.96;98040.78;30001;982;1880;-57
2021/09/30 04:25:18;;;;;;;;;;;;;;;7.07;81.32;98041.28;30001;982;1876;-58
2021/09/30 04:25:49;;;;;;;;;;;;;;;7.05;81.39;98049.63;30001;982;1880;-57
2021/09/30 04:26:20;;;;;;;;;;;;;;;7.06;81.00;98039.63;30001;982;1876;-56
2021/09/30 04:26:52;;;;;;;;;;;;;;;7.05;81.30;98038.00;30001;982;1880;-59
2021/09/30 04:27:23;;;;;;;;;;;;;;;7.00;81.27;98029.81;30001;982;1876;-57
2021/09/30 04:27:54;;;;;;;;;;;;;;;6.98;81.79;98043.53;30001;982;1881;-58
2021/09/30 04:28:25;;;;;;;;;;;;;;;6.98;81.81;98037.31;30001;983;1875;-57
2021/09/30 04:28:55;;;;;;;;;;;;;;;6.97;81.37;98041.09;30001;983;1880;-57
2021/09/30 04:29:27;;;;;;;;;;;;;;;6.97;81.40;98036.50;30001;983;1853;-58
2021/09/30 04:29:57;;;;;;;;;;;;;;;7.00;81.95;98046.00;30001;983;1876;-58
2021/09/30 04:30:28;;;;;;;;;;;;;;;6.99;82.15;98038.97;30001;983;1876;-58
2021/09/30 04:30:59;;;;;;;;;;;;;;;6.99;82.24;98042.47;30001;983;1880;-57
2021/09/30 04:31:30;;;;;;;;;;;;;;;6.99;82.16;98044.34;30001;983;1876;-57
2021/09/30 04:32:00;;;;;;;;;;;;;;;6.99;82.18;98038.97;30001;983;1880;-59
2021/09/30 04:32:31;;;;;;;;;;;;;;;6.99;81.80;98041.66;30001;982;1876;-57
2021/09/30 04:33:02;;;;;;;;;;;;;;;6.98;82.04;98037.31;30001;982;1858;-57
2021/09/30 04:33:33;;;;;;;;;;;;;;;6.98;81.78;98042.72;30001;982;1872;-61
2021/09/30 04:34:04;;;;;;;;;;;;;;;6.97;81.68;98041.09;30001;982;1880;-57
2021/09/30 04:34:35;;;;;;;;;;;;;;;6.98;81.77;98042.72;30001;982;1876;-60
2021/09/30 04:35:06;;;;;;;;;;;;;;;6.97;82.04;98035.69;30001;982;1880;-58
2021/09/30 04:35:37;;;;;;;;;;;;;;;6.97;81.62;98035.69;30001;983;1875;-57
2021/09/30 04:36:08;;;;;;;;;;;;;;;6.97;81.86;98038.38;30001;983;1880;-58
2021/09/30 04:36:39;;;;;;;;;;;;;;;6.95;81.83;98041.31;30001;983;1875;-57
2021/09/30 04:37:13;;;;;;;;;;;;;;;6.95;82.17;98040.50;30001;983;1879;-57
2021/09/30 04:37:44;;;;;;;;;;;;;;;6.93;81.81;98043.44;30001;983;1875;-58
2021/09/30 04:38:16;;;;;;;;;;;;;;;6.92;81.85;98044.53;30001;983;1858;-60
2021/09/30 04:38:50;;;;;;;;;;;;;;;6.92;82.05;98035.63;30001;983;1871;-60
2021/09/30 04:39:21;;;;;;;;;;;;;;;6.91;82.06;98040.19;30001;983;1880;-58
2021/09/30 04:39:52;;;;;;;;;;;;;;;6.91;82.00;98042.06;30001;982;1876;-58
2021/09/30 04:40:23;;;;;;;;;;;;;;;6.91;82.44;98032.09;30001;982;1880;-57
2021/09/30 04:40:54;;;;;;;;;;;;;;;6.92;82.32;98035.63;30001;982;1876;-58
2021/09/30 04:41:24;;;;;;;;;;;;;;;6.94;81.95;98041.56;30001;982;1880;-57
2021/09/30 04:41:55;;;;;;;;;;;;;;;6.92;81.89;98032.91;30001;982;1876;-62
2021/09/30 04:42:26;;;;;;;;;;;;;;;6.91;82.01;98036.69;30001;982;1881;-58
2021/09/30 04:42:57;;;;;;;;;;;;;;;6.91;81.78;98039.38;30001;982;1876;-57
2021/09/30 04:43:28;;;;;;;;;;;;;;;6.89;82.25;98028.81;30001;983;1858;-58
2021/09/30 04:43:59;;;;;;;;;;;;;;;6.89;81.95;98033.41;30001;983;1871;-57
2021/09/30 04:44:29;;;;;;;;;;;;;;;6.88;82.26;98035.28;30001;983;1880;-57
2021/09/30 04:45:00;;;;;;;;;;;;;;;6.85;82.26;98033.06;30001;983;1876;-57
2021/09/30 04:45:31;;;;;;;;;;;;;;;6.82;82.28;98033.53;30001;983;1880;-59
2021/09/30 04:46:02;;;;;;;;;;;;;;;6.81;82.11;98037.28;30001;983;1876;-57
2021/09/30 04:46:33;;;;;;;;;;;;;;;6.81;82.29;98033.78;30001;983;1880;-57
2021/09/30 04:47:04;;;;;;;;;;;;;;;6.80;81.82;98032.13;30001;983;1876;-57
2021/09/30 04:47:35;;;;;;;;;;;;;;;6.79;81.90;98033.19;30001;982;1880;-57
2021/09/30 04:48:06;;;;;;;;;;;;;;;6.76;82.30;98034.50;30001;982;1854;-57
2021/09/30 04:48:37;;;;;;;;;;;;;;;6.77;82.31;98038.00;30001;982;1876;-58
2021/09/30 04:49:07;;;;;;;;;;;;;;;6.77;82.14;98038.00;30001;982;1876;-57
2021/09/30 04:49:38;;;;;;;;;;;;;;;6.77;82.17;98035.31;30001;982;1880;-58
2021/09/30 04:50:10;;;;;;;;;;;;;;;6.78;82.22;98031.56;30001;982;1876;-56
2021/09/30 04:50:43;;;;;;;;;;;;;;;6.78;82.21;98031.56;30001;982;1881;-58
2021/09/30 04:51:14;;;;;;;;;;;;;;;6.78;82.12;98031.56;30001;983;1875;-57
2021/09/30 04:51:45;;;;;;;;;;;;;;;6.78;81.76;98034.25;30001;983;1880;-58
2021/09/30 04:52:16;;;;;;;;;;;;;;;6.79;81.96;98033.19;30001;983;1875;-57
2021/09/30 04:52:47;;;;;;;;;;;;;;;6.79;81.87;98034.00;30001;983;1880;-58
2021/09/30 04:53:18;;;;;;;;;;;;;;;6.80;81.49;98034.84;30001;983;1854;-57
2021/09/30 04:53:48;;;;;;;;;;;;;;;6.77;81.60;98036.13;30001;983;1876;-57
2021/09/30 04:54:19;;;;;;;;;;;;;;;6.77;81.88;98038.00;30001;983;1876;-57
2021/09/30 04:54:50;;;;;;;;;;;;;;;6.77;81.78;98040.72;30001;983;1858;-57
2021/09/30 04:55:21;;;;;;;;;;;;;;;6.77;82.13;98029.91;30001;982;1871;-62
2021/09/30 04:55:52;;;;;;;;;;;;;;;6.77;81.75;98035.31;30001;982;1880;-62
2021/09/30 04:56:23;;;;;;;;;;;;;;;6.76;82.12;98033.69;30001;982;1876;-58
2021/09/30 04:56:54;;;;;;;;;;;;;;;6.73;82.14;98027.69;30001;982;1859;-57
2021/09/30 04:57:25;;;;;;;;;;;;;;;6.73;82.04;98030.41;30001;983;1871;-58
2021/09/30 04:57:55;;;;;;;;;;;;;;;6.73;82.16;98034.97;30001;983;1880;-57
2021/09/30 04:58:26;;;;;;;;;;;;;;;6.73;82.15;98030.41;30001;983;1875;-59
2021/09/30 04:58:59;;;;;;;;;;;;;;;6.75;82.06;98032.03;30001;983;1880;-61
2021/09/30 04:59:33;;;;;;;;;;;;;;;6.75;82.05;98037.44;30001;983;1875;-57
2021/09/30 05:00:05;;;;;;;;;;;;;;;6.75;81.92;98037.44;30001;983;1858;-60
2021/09/30 05:00:36;;;;;;;;;;;;;;;6.75;81.90;98042.81;30001;983;1871;-60
2021/09/30 05:01:06;;;;;;;;;;;;;;;6.74;81.77;98031.22;30001;983;1880;-58
2021/09/30 05:01:38;;;;;;;;;;;;;;;6.71;82.22;98032.50;30001;983;1876;-56
2021/09/30 05:02:09;;;;;;;;;;;;;;;6.70;82.19;98038.97;30001;983;1880;-59
2021/09/30 05:02:40;;;;;;;;;;;;;;;6.67;82.50;98034.06;30001;982;1876;-61
2021/09/30 05:03:11;;;;;;;;;;;;;;;6.67;82.29;98038.62;30001;982;1880;-56
2021/09/30 05:03:41;;;;;;;;;;;;;;;6.67;82.02;98035.94;30001;982;1876;-58
2021/09/30 05:04:12;;;;;;;;;;;;;;;6.67;82.25;98041.31;30001;982;1880;-57
2021/09/30 05:04:43;;;;;;;;;;;;;;;6.67;82.13;98035.94;30001;982;1854;-57
2021/09/30 05:05:15;;;;;;;;;;;;;;;6.66;82.51;98035.09;30001;983;1875;-57
2021/09/30 05:05:47;;;;;;;;;;;;;;;6.66;82.47;98037.81;30001;983;1875;-57
2021/09/30 05:06:18;;;;;;;;;;;;;;;6.66;82.44;98037.81;30001;983;1880;-56
2021/09/30 05:06:48;;;;;;;;;;;;;;;6.66;82.21;98029.72;30001;983;1875;-56
2021/09/30 05:07:19;;;;;;;;;;;;;;;6.67;82.26;98035.94;30001;983;1880;-57
2021/09/30 05:07:50;;;;;;;;;;;;;;;6.66;82.66;98040.50;30001;983;1876;-57
2021/09/30 05:08:21;;;;;;;;;;;;;;;6.65;82.57;98038.88;30001;983;1880;-58
2021/09/30 05:08:56;;;;;;;;;;;;;;;6.65;82.50;98041.56;30001;983;1854;-57
2021/09/30 05:09:28;;;;;;;;;;;;;;;6.64;82.31;98039.91;30001;983;1876;-56
2021/09/30 05:10:02;;;;;;;;;;;;;;;6.64;82.45;98042.63;30001;983;1876;-58
2021/09/30 05:10:34;;;;;;;;;;;;;;;6.65;82.30;98040.75;30001;982;1880;-61
2021/09/30 05:11:06;;;;;;;;;;;;;;;6.65;82.39;98038.03;30001;982;1876;-57
2021/09/30 05:11:42;;;;;;;;;;;;;;;6.65;82.94;98049.66;30001;982;1880;-57
2021/09/30 05:12:15;;;;;;;;;;;;;;;6.64;82.83;98048.00;30001;982;1876;-58
2021/09/30 05:12:49;;;;;;;;;;;;;;;6.65;82.60;98043.44;30001;983;1880;-63
2021/09/30 05:13:25;;;;;;;;;;;;;;;6.63;82.64;98043.66;30001;983;1853;-62
2021/09/30 05:13:58;;;;;;;;;;;;;;;6.64;82.71;98048.00;30001;983;1875;-62
2021/09/30 05:14:29;;;;;;;;;;;;;;;6.64;82.49;98041.78;30001;983;1875;-56
2021/09/30 05:15:03;;;;;;;;;;;;;;;6.64;82.68;98045.31;30001;983;1880;-56
2021/09/30 05:15:36;;;;;;;;;;;;;;;6.63;82.54;98040.97;30001;983;1876;-57
2021/09/30 05:16:09;;;;;;;;;;;;;;;6.60;82.32;98041.44;30001;983;1880;-62
2021/09/30 05:16:41;;;;;;;;;;;;;;;6.59;82.57;98037.13;30001;983;1876;-63
2021/09/30 05:17:11;;;;;;;;;;;;;;;6.60;82.59;98046.84;30001;963;1771;-58
2021/09/30 05:17:42;;;;;;;;;;;;;;;6.60;82.47;98041.44;30001;982;1871;-56
2021/09/30 05:18:13;;;;;;;;;;;;;;;6.61;82.37;98043.09;30001;982;1880;-63
2021/09/30 05:18:49;;;;;;;;;;;;;;;6.63;82.34;98045.56;30001;982;1854;-62
2021/09/30 05:19:20;;;;;;;;;;;;;;;6.62;82.19;98043.91;30001;982;1885;-58
2021/09/30 05:19:51;;;;;;;;;;;;;;;6.61;82.31;98045.78;30001;982;1881;-57
2021/09/30 05:20:21;;;;;;;;;;;;;;;6.61;82.29;98047.66;30001;983;1884;-57
2021/09/30 05:20:52;;;;;;;;;;;;;;;6.61;82.48;98048.50;30001;983;1880;-61
2021/09/30 05:21:24;;;;;;;;;;;;;;;6.61;82.56;98047.66;30001;983;1884;-61
2021/09/30 05:21:54;;;;;;;;;;;;;;;6.61;82.51;98044.97;30001;983;1880;-64
2021/09/30 05:22:25;;;;;;;;;;;;;;;6.62;82.28;98055.53;30001;983;1862;-58
2021/09/30 05:22:56;;;;;;;;;;;;;;;6.62;82.45;98050.13;30001;983;1876;-58
2021/09/30 05:23:27;;;;;;;;;;;;;;;6.62;82.62;98044.72;30001;983;1885;-57
2021/09/30 05:23:58;;;;;;;;;;;;;;;6.63;82.62;98051.75;30001;983;1880;-57
2021/09/30 05:24:28;;;;;;;;;;;;;;;6.64;82.61;98049.87;30001;983;1884;-57
2021/09/30 05:24:59;;;;;;;;;;;;;;;6.63;82.35;98049.06;30001;983;1880;-57
2021/09/30 05:25:30;;;;;;;;;;;;;;;6.63;82.13;98051.75;30001;982;1885;-57
2021/09/30 05:26:01;;;;;;;;;;;;;;;6.62;82.37;98055.53;30001;982;1880;-64
2021/09/30 05:26:32;;;;;;;;;;;;;;;6.64;82.06;98053.41;30001;982;1885;-57
2021/09/30 05:27:03;;;;;;;;;;;;;;;6.63;82.06;98054.47;30001;982;1859;-57
2021/09/30 05:27:34;;;;;;;;;;;;;;;6.62;82.17;98055.53;30001;982;1881;-57
2021/09/30 05:28:04;;;;;;;;;;;;;;;6.61;82.54;98053.88;30001;983;1880;-62
2021/09/30 05:28:35;;;;;;;;;;;;;;;6.58;82.57;98059.78;30001;983;1862;-58
2021/09/30 05:29:09;;;;;;;;;;;;;;;6.58;82.70;98054.38;30001;983;1875;-64
2021/09/30 05:29:39;;;;;;;;;;;;;;;6.59;82.57;98061.38;30001;983;1884;-58
2021/09/30 05:30:11;;;;;;;;;;;;;;;6.59;82.83;98055.19;30001;983;1880;-56
2021/09/30 05:30:41;;;;;;;;;;;;;;;6.59;82.68;98065.97;30001;983;1884;-64
2021/09/30 05:31:12;;;;;;;;;;;;;;;6.60;82.79;98065.72;30001;983;1880;-61
2021/09/30 05:31:43;;;;;;;;;;;;;;;6.60;82.57;98063.03;30001;983;1884;-58